sensor_id;sensor_type;location;lat;lon;timestamp;temperature;humidity
4052;DHT22;2040;50.924;11.604;2023-09-12T00:02:06;16.30;99.90
4052;DHT22;2040;50.924;11.604;2023-09-12T00:04:31;16.30;99.90
4052;DHT22;2040;50.924;11.604;2023-09-12T00:06:57;16.20;99.90
4052;DHT22;2040;50.924;11.604;2023-09-12T00:09:23;16.10;99.90
4052;DHT22;2040;50.924;11.604;2023-09-12T00:11:48;16.00;99.90
4052;DHT22;2040;50.924;11.604;2023-09-12T00:14:17;15.90;99.90
4052;DHT22;2040;50.924;11.604;2023-09-12T00:16:43;16.00;99.90
4052;DHT22;2040;50.924;11.604;2023-09-12T00:19:09;16.00;99.90
4052;DHT22;2040;50.924;11.604;2023-09-12T00:21:34;16.00;99.90
4052;DHT22;2040;50.924;11.604;2023-09-12T00:24:00;15.90;99.90
4052;DHT22;2040;50.924;11.604;2023-09-12T00:26:26;16.10;99.90
4052;DHT22;2040;50.924;11.604;2023-09-12T00:28:51;16.10;99.90
4052;DHT22;2040;50.924;11.604;2023-09-12T00:31:17;15.80;99.90
4052;DHT22;2040;50.924;11.604;2023-09-12T00:33:42;15.70;99.90
4052;DHT22;2040;50.924;11.604;2023-09-12T00:36:08;15.60;99.90
4052;DHT22;2040;50.924;11.604;2023-09-12T00:38:33;15.60;99.90
4052;DHT22;2040;50.924;11.604;2023-09-12T00:40:59;15.50;99.90
4052;DHT22;2040;50.924;11.604;2023-09-12T00:43:27;15.30;99.90
4052;DHT22;2040;50.924;11.604;2023-09-12T00:45:52;15.30;99.90
4052;DHT22;2040;50.924;11.604;2023-09-12T00:48:19;15.30;99.90
4052;DHT22;2040;50.924;11.604;2023-09-12T00:50:46;15.30;99.90
4052;DHT22;2040;50.924;11.604;2023-09-12T00:53:12;15.20;99.90
4052;DHT22;2040;50.924;11.604;2023-09-12T00:55:42;15.20;99.90
4052;DHT22;2040;50.924;11.604;2023-09-12T00:58:09;15.10;99.90
4052;DHT22;2040;50.924;11.604;2023-09-12T01:00:35;15.20;99.90
4052;DHT22;2040;50.924;11.604;2023-09-12T01:03:01;15.30;99.90
4052;DHT22;2040;50.924;11.604;2023-09-12T01:05:27;15.20;99.90
4052;DHT22;2040;50.924;11.604;2023-09-12T01:07:53;15.20;99.90
4052;DHT22;2040;50.924;11.604;2023-09-12T01:10:19;15.20;99.90
4052;DHT22;2040;50.924;11.604;2023-09-12T01:12:45;15.50;99.90
4052;DHT22;2040;50.924;11.604;2023-09-12T01:15:10;15.50;99.90
4052;DHT22;2040;50.924;11.604;2023-09-12T01:17:40;15.70;99.90
4052;DHT22;2040;50.924;11.604;2023-09-12T01:20:08;15.60;99.90
4052;DHT22;2040;50.924;11.604;2023-09-12T01:26:03;15.40;99.90
4052;DHT22;2040;50.924;11.604;2023-09-12T01:28:40;15.30;99.90
4052;DHT22;2040;50.924;11.604;2023-09-12T01:31:08;15.20;99.90
4052;DHT22;2040;50.924;11.604;2023-09-12T01:33:34;15.30;99.90
4052;DHT22;2040;50.924;11.604;2023-09-12T01:36:00;15.30;99.90
4052;DHT22;2040;50.924;11.604;2023-09-12T01:38:26;15.30;99.90
4052;DHT22;2040;50.924;11.604;2023-09-12T01:40:53;15.30;99.90
4052;DHT22;2040;50.924;11.604;2023-09-12T01:43:23;15.30;99.90
4052;DHT22;2040;50.924;11.604;2023-09-12T01:45:52;15.30;99.90
4052;DHT22;2040;50.924;11.604;2023-09-12T01:48:23;15.40;99.90
4052;DHT22;2040;50.924;11.604;2023-09-12T01:50:52;15.40;99.90
4052;DHT22;2040;50.924;11.604;2023-09-12T01:53:18;15.30;99.90
4052;DHT22;2040;50.924;11.604;2023-09-12T01:55:45;15.20;99.90
4052;DHT22;2040;50.924;11.604;2023-09-12T01:58:14;15.10;99.90
4052;DHT22;2040;50.924;11.604;2023-09-12T02:00:40;15.00;99.90
4052;DHT22;2040;50.924;11.604;2023-09-12T02:03:06;14.90;99.90
4052;DHT22;2040;50.924;11.604;2023-09-12T02:05:32;14.90;99.90
4052;DHT22;2040;50.924;11.604;2023-09-12T02:07:58;14.80;99.90
4052;DHT22;2040;50.924;11.604;2023-09-12T02:10:27;14.90;99.90
4052;DHT22;2040;50.924;11.604;2023-09-12T02:12:53;14.80;99.90
4052;DHT22;2040;50.924;11.604;2023-09-12T02:15:18;14.80;99.90
4052;DHT22;2040;50.924;11.604;2023-09-12T02:17:44;14.80;99.90
4052;DHT22;2040;50.924;11.604;2023-09-12T02:20:10;14.90;99.90
4052;DHT22;2040;50.924;11.604;2023-09-12T02:22:36;14.90;99.90
4052;DHT22;2040;50.924;11.604;2023-09-12T02:25:04;15.10;99.90
4052;DHT22;2040;50.924;11.604;2023-09-12T02:27:30;15.20;99.90
4052;DHT22;2040;50.924;11.604;2023-09-12T02:29:55;15.30;99.90
4052;DHT22;2040;50.924;11.604;2023-09-12T02:32:21;15.20;99.90
4052;DHT22;2040;50.924;11.604;2023-09-12T02:34:47;15.00;99.90
4052;DHT22;2040;50.924;11.604;2023-09-12T02:37:12;14.90;99.90
4052;DHT22;2040;50.924;11.604;2023-09-12T02:39:38;14.80;99.90
4052;DHT22;2040;50.924;11.604;2023-09-12T02:42:04;14.60;99.90
4052;DHT22;2040;50.924;11.604;2023-09-12T02:44:29;14.60;99.90
4052;DHT22;2040;50.924;11.604;2023-09-12T02:46:55;14.60;99.90
4052;DHT22;2040;50.924;11.604;2023-09-12T02:49:21;14.60;99.90
4052;DHT22;2040;50.924;11.604;2023-09-12T02:51:46;14.60;99.90
4052;DHT22;2040;50.924;11.604;2023-09-12T02:54:12;14.60;99.90
4052;DHT22;2040;50.924;11.604;2023-09-12T02:56:38;14.50;99.90
4052;DHT22;2040;50.924;11.604;2023-09-12T02:59:03;14.40;99.90
4052;DHT22;2040;50.924;11.604;2023-09-12T03:01:30;14.30;99.90
4052;DHT22;2040;50.924;11.604;2023-09-12T03:03:56;14.30;99.90
4052;DHT22;2040;50.924;11.604;2023-09-12T03:06:22;14.30;99.90
4052;DHT22;2040;50.924;11.604;2023-09-12T03:08:48;14.30;99.90
4052;DHT22;2040;50.924;11.604;2023-09-12T03:11:13;14.30;99.90
4052;DHT22;2040;50.924;11.604;2023-09-12T03:13:40;14.30;99.90
4052;DHT22;2040;50.924;11.604;2023-09-12T03:16:10;14.30;99.90
4052;DHT22;2040;50.924;11.604;2023-09-12T03:18:36;14.20;99.90
4052;DHT22;2040;50.924;11.604;2023-09-12T03:21:02;14.10;99.90
4052;DHT22;2040;50.924;11.604;2023-09-12T03:23:28;14.10;99.90
4052;DHT22;2040;50.924;11.604;2023-09-12T03:25:53;14.10;99.90
4052;DHT22;2040;50.924;11.604;2023-09-12T03:28:19;14.10;99.90
4052;DHT22;2040;50.924;11.604;2023-09-12T03:30:44;14.10;99.90
4052;DHT22;2040;50.924;11.604;2023-09-12T03:33:10;14.30;99.90
4052;DHT22;2040;50.924;11.604;2023-09-12T03:35:36;14.50;99.90
4052;DHT22;2040;50.924;11.604;2023-09-12T03:38:02;14.50;99.90
4052;DHT22;2040;50.924;11.604;2023-09-12T03:40:29;14.50;99.90
4052;DHT22;2040;50.924;11.604;2023-09-12T03:42:55;14.40;99.90
4052;DHT22;2040;50.924;11.604;2023-09-12T03:45:21;14.30;99.90
4052;DHT22;2040;50.924;11.604;2023-09-12T03:47:47;14.40;99.90
4052;DHT22;2040;50.924;11.604;2023-09-12T03:50:12;14.30;99.90
4052;DHT22;2040;50.924;11.604;2023-09-12T03:52:39;14.30;99.90
4052;DHT22;2040;50.924;11.604;2023-09-12T03:55:05;14.30;99.90
4052;DHT22;2040;50.924;11.604;2023-09-12T03:57:31;14.20;99.90
4052;DHT22;2040;50.924;11.604;2023-09-12T03:59:57;14.20;99.90
4052;DHT22;2040;50.924;11.604;2023-09-12T04:02:23;14.20;99.90
4052;DHT22;2040;50.924;11.604;2023-09-12T04:04:48;14.20;99.90
4052;DHT22;2040;50.924;11.604;2023-09-12T04:07:14;14.10;99.90
4052;DHT22;2040;50.924;11.604;2023-09-12T04:09:39;14.00;99.90
4052;DHT22;2040;50.924;11.604;2023-09-12T04:12:06;13.90;99.90
4052;DHT22;2040;50.924;11.604;2023-09-12T04:14:32;13.90;99.90
4052;DHT22;2040;50.924;11.604;2023-09-12T04:16:58;13.80;99.90
4052;DHT22;2040;50.924;11.604;2023-09-12T04:19:24;13.80;99.90
4052;DHT22;2040;50.924;11.604;2023-09-12T04:21:50;13.90;99.90
4052;DHT22;2040;50.924;11.604;2023-09-12T04:24:15;14.10;99.90
4052;DHT22;2040;50.924;11.604;2023-09-12T04:26:43;14.10;99.90
4052;DHT22;2040;50.924;11.604;2023-09-12T04:29:09;14.10;99.90
4052;DHT22;2040;50.924;11.604;2023-09-12T04:31:35;14.20;99.90
4052;DHT22;2040;50.924;11.604;2023-09-12T04:34:00;14.20;99.90
4052;DHT22;2040;50.924;11.604;2023-09-12T04:36:26;14.30;99.90
4052;DHT22;2040;50.924;11.604;2023-09-12T04:38:52;14.20;99.90
4052;DHT22;2040;50.924;11.604;2023-09-12T04:41:17;14.20;99.90
4052;DHT22;2040;50.924;11.604;2023-09-12T04:43:46;14.20;99.90
4052;DHT22;2040;50.924;11.604;2023-09-12T04:46:12;14.10;99.90
4052;DHT22;2040;50.924;11.604;2023-09-12T04:48:38;13.90;99.90
4052;DHT22;2040;50.924;11.604;2023-09-12T04:51:04;13.90;99.90
4052;DHT22;2040;50.924;11.604;2023-09-12T04:53:30;13.90;99.90
4052;DHT22;2040;50.924;11.604;2023-09-12T04:56:00;13.90;99.90
4052;DHT22;2040;50.924;11.604;2023-09-12T04:58:26;13.90;99.90
4052;DHT22;2040;50.924;11.604;2023-09-12T05:00:52;13.90;99.90
4052;DHT22;2040;50.924;11.604;2023-09-12T05:03:17;13.90;99.90
4052;DHT22;2040;50.924;11.604;2023-09-12T05:05:46;13.80;99.90
4052;DHT22;2040;50.924;11.604;2023-09-12T05:08:12;13.90;99.90
4052;DHT22;2040;50.924;11.604;2023-09-12T05:10:38;13.90;99.90
4052;DHT22;2040;50.924;11.604;2023-09-12T05:13:04;13.90;99.90
4052;DHT22;2040;50.924;11.604;2023-09-12T05:15:30;14.00;99.90
4052;DHT22;2040;50.924;11.604;2023-09-12T05:17:55;14.00;99.90
4052;DHT22;2040;50.924;11.604;2023-09-12T05:20:21;14.10;99.90
4052;DHT22;2040;50.924;11.604;2023-09-12T05:22:47;14.10;99.90
4052;DHT22;2040;50.924;11.604;2023-09-12T05:25:12;14.20;99.90
4052;DHT22;2040;50.924;11.604;2023-09-12T05:27:38;14.30;99.90
4052;DHT22;2040;50.924;11.604;2023-09-12T05:30:04;14.30;99.90
4052;DHT22;2040;50.924;11.604;2023-09-12T05:32:29;14.20;99.90
4052;DHT22;2040;50.924;11.604;2023-09-12T05:34:56;14.30;99.90
4052;DHT22;2040;50.924;11.604;2023-09-12T05:37:21;14.20;99.90
4052;DHT22;2040;50.924;11.604;2023-09-12T05:39:47;14.30;99.90
4052;DHT22;2040;50.924;11.604;2023-09-12T05:42:13;14.40;99.90
4052;DHT22;2040;50.924;11.604;2023-09-12T05:44:40;14.50;99.90
4052;DHT22;2040;50.924;11.604;2023-09-12T05:47:07;14.40;99.90
4052;DHT22;2040;50.924;11.604;2023-09-12T05:49:33;14.40;99.90
4052;DHT22;2040;50.924;11.604;2023-09-12T05:51:59;14.40;99.90
4052;DHT22;2040;50.924;11.604;2023-09-12T05:54:25;14.50;99.90
4052;DHT22;2040;50.924;11.604;2023-09-12T05:56:51;14.40;99.90
4052;DHT22;2040;50.924;11.604;2023-09-12T05:59:18;14.50;99.90
4052;DHT22;2040;50.924;11.604;2023-09-12T06:01:43;14.60;99.90
4052;DHT22;2040;50.924;11.604;2023-09-12T06:04:09;14.50;99.90
4052;DHT22;2040;50.924;11.604;2023-09-12T06:06:35;14.60;99.90
4052;DHT22;2040;50.924;11.604;2023-09-12T06:09:00;14.60;99.90
4052;DHT22;2040;50.924;11.604;2023-09-12T06:11:26;14.60;99.90
4052;DHT22;2040;50.924;11.604;2023-09-12T06:13:51;14.70;99.90
4052;DHT22;2040;50.924;11.604;2023-09-12T06:16:17;14.80;99.90
4052;DHT22;2040;50.924;11.604;2023-09-12T06:18:43;14.90;99.90
4052;DHT22;2040;50.924;11.604;2023-09-12T06:21:08;14.90;99.90
4052;DHT22;2040;50.924;11.604;2023-09-12T06:23:34;14.80;99.90
4052;DHT22;2040;50.924;11.604;2023-09-12T06:26:00;14.80;99.90
4052;DHT22;2040;50.924;11.604;2023-09-12T06:28:27;14.80;99.90
4052;DHT22;2040;50.924;11.604;2023-09-12T06:30:53;14.90;99.90
4052;DHT22;2040;50.924;11.604;2023-09-12T06:33:18;15.00;99.90
4052;DHT22;2040;50.924;11.604;2023-09-12T06:35:48;15.00;99.90
4052;DHT22;2040;50.924;11.604;2023-09-12T06:38:13;15.00;99.90
4052;DHT22;2040;50.924;11.604;2023-09-12T06:40:39;15.40;99.90
4052;DHT22;2040;50.924;11.604;2023-09-12T06:43:04;15.40;99.90
4052;DHT22;2040;50.924;11.604;2023-09-12T06:45:30;15.40;99.90
4052;DHT22;2040;50.924;11.604;2023-09-12T06:47:58;15.40;99.90
4052;DHT22;2040;50.924;11.604;2023-09-12T06:50:23;15.60;99.90
4052;DHT22;2040;50.924;11.604;2023-09-12T06:52:49;15.70;99.90
4052;DHT22;2040;50.924;11.604;2023-09-12T06:55:15;16.00;99.90
4052;DHT22;2040;50.924;11.604;2023-09-12T06:57:40;16.10;99.90
4052;DHT22;2040;50.924;11.604;2023-09-12T07:00:06;16.20;99.90
4052;DHT22;2040;50.924;11.604;2023-09-12T07:02:32;16.20;99.90
4052;DHT22;2040;50.924;11.604;2023-09-12T07:04:58;16.20;99.90
4052;DHT22;2040;50.924;11.604;2023-09-12T07:07:24;16.20;99.90
4052;DHT22;2040;50.924;11.604;2023-09-12T07:09:49;16.20;99.90
4052;DHT22;2040;50.924;11.604;2023-09-12T07:12:15;16.20;99.90
4052;DHT22;2040;50.924;11.604;2023-09-12T07:14:41;16.20;99.90
4052;DHT22;2040;50.924;11.604;2023-09-12T07:17:07;16.40;99.90
4052;DHT22;2040;50.924;11.604;2023-09-12T07:19:33;16.50;99.90
4052;DHT22;2040;50.924;11.604;2023-09-12T07:21:58;16.60;99.90
4052;DHT22;2040;50.924;11.604;2023-09-12T07:24:27;16.70;99.90
4052;DHT22;2040;50.924;11.604;2023-09-12T07:26:53;16.80;99.90
4052;DHT22;2040;50.924;11.604;2023-09-12T07:29:19;16.90;99.90
4052;DHT22;2040;50.924;11.604;2023-09-12T07:31:44;17.10;99.90
4052;DHT22;2040;50.924;11.604;2023-09-12T07:34:10;17.30;99.90
4052;DHT22;2040;50.924;11.604;2023-09-12T07:36:37;17.30;99.90
4052;DHT22;2040;50.924;11.604;2023-09-12T07:39:03;17.40;99.90
4052;DHT22;2040;50.924;11.604;2023-09-12T07:41:30;17.50;99.90
4052;DHT22;2040;50.924;11.604;2023-09-12T07:43:56;17.80;99.90
4052;DHT22;2040;50.924;11.604;2023-09-12T07:46:21;18.00;99.90
4052;DHT22;2040;50.924;11.604;2023-09-12T07:48:47;18.20;99.90
4052;DHT22;2040;50.924;11.604;2023-09-12T07:51:14;18.30;99.90
4052;DHT22;2040;50.924;11.604;2023-09-12T07:53:40;18.30;99.90
4052;DHT22;2040;50.924;11.604;2023-09-12T07:56:07;18.30;99.90
4052;DHT22;2040;50.924;11.604;2023-09-12T07:58:32;18.40;99.90
4052;DHT22;2040;50.924;11.604;2023-09-12T08:00:58;18.50;99.90
4052;DHT22;2040;50.924;11.604;2023-09-12T08:03:23;18.50;99.90
4052;DHT22;2040;50.924;11.604;2023-09-12T08:05:56;18.60;99.90
4052;DHT22;2040;50.924;11.604;2023-09-12T08:08:22;18.70;99.90
4052;DHT22;2040;50.924;11.604;2023-09-12T08:10:48;18.80;99.90
4052;DHT22;2040;50.924;11.604;2023-09-12T08:13:14;18.90;99.90
4052;DHT22;2040;50.924;11.604;2023-09-12T08:15:40;19.00;99.90
4052;DHT22;2040;50.924;11.604;2023-09-12T08:18:06;19.10;99.90
4052;DHT22;2040;50.924;11.604;2023-09-12T08:20:31;19.30;99.90
4052;DHT22;2040;50.924;11.604;2023-09-12T08:22:57;19.50;99.90
4052;DHT22;2040;50.924;11.604;2023-09-12T08:25:22;19.60;99.90
4052;DHT22;2040;50.924;11.604;2023-09-12T08:27:50;19.90;99.90
4052;DHT22;2040;50.924;11.604;2023-09-12T08:30:16;20.00;99.90
4052;DHT22;2040;50.924;11.604;2023-09-12T08:32:41;20.10;99.90
4052;DHT22;2040;50.924;11.604;2023-09-12T08:35:10;20.20;99.90
4052;DHT22;2040;50.924;11.604;2023-09-12T08:37:36;20.20;99.90
4052;DHT22;2040;50.924;11.604;2023-09-12T08:40:02;20.20;99.90
4052;DHT22;2040;50.924;11.604;2023-09-12T08:42:29;20.30;99.90
4052;DHT22;2040;50.924;11.604;2023-09-12T08:44:55;20.40;99.90
4052;DHT22;2040;50.924;11.604;2023-09-12T08:47:22;20.40;99.90
4052;DHT22;2040;50.924;11.604;2023-09-12T08:49:49;20.60;99.90
4052;DHT22;2040;50.924;11.604;2023-09-12T08:52:14;20.70;99.90
4052;DHT22;2040;50.924;11.604;2023-09-12T08:54:40;20.90;99.90
4052;DHT22;2040;50.924;11.604;2023-09-12T08:57:07;21.10;99.90
4052;DHT22;2040;50.924;11.604;2023-09-12T08:59:34;21.30;99.90
4052;DHT22;2040;50.924;11.604;2023-09-12T09:02:00;21.40;99.90
4052;DHT22;2040;50.924;11.604;2023-09-12T09:04:29;21.50;99.90
4052;DHT22;2040;50.924;11.604;2023-09-12T09:06:57;21.70;99.90
4052;DHT22;2040;50.924;11.604;2023-09-12T09:09:23;21.90;99.90
4052;DHT22;2040;50.924;11.604;2023-09-12T09:11:52;22.00;99.90
4052;DHT22;2040;50.924;11.604;2023-09-12T09:14:18;22.30;99.90
4052;DHT22;2040;50.924;11.604;2023-09-12T09:16:43;22.40;99.90
4052;DHT22;2040;50.924;11.604;2023-09-12T09:19:09;22.60;99.90
4052;DHT22;2040;50.924;11.604;2023-09-12T09:21:36;22.70;99.90
4052;DHT22;2040;50.924;11.604;2023-09-12T09:24:06;23.00;99.90
4052;DHT22;2040;50.924;11.604;2023-09-12T09:29:09;23.50;99.90
4052;DHT22;2040;50.924;11.604;2023-09-12T09:31:35;23.60;99.90
4052;DHT22;2040;50.924;11.604;2023-09-12T09:34:01;23.90;99.90
4052;DHT22;2040;50.924;11.604;2023-09-12T09:36:28;24.10;99.90
4052;DHT22;2040;50.924;11.604;2023-09-12T09:38:56;24.30;99.90
4052;DHT22;2040;50.924;11.604;2023-09-12T09:41:22;24.40;99.90
4052;DHT22;2040;50.924;11.604;2023-09-12T09:43:51;24.60;99.90
4052;DHT22;2040;50.924;11.604;2023-09-12T09:46:18;24.90;99.90
4052;DHT22;2040;50.924;11.604;2023-09-12T09:48:51;25.10;99.90
4052;DHT22;2040;50.924;11.604;2023-09-12T09:51:17;25.20;99.90
4052;DHT22;2040;50.924;11.604;2023-09-12T09:53:43;25.40;99.90
4052;DHT22;2040;50.924;11.604;2023-09-12T09:56:13;25.60;99.90
4052;DHT22;2040;50.924;11.604;2023-09-12T09:58:52;25.60;99.90
4052;DHT22;2040;50.924;11.604;2023-09-12T10:01:29;25.80;99.90
4052;DHT22;2040;50.924;11.604;2023-09-12T10:04:00;25.80;99.90
4052;DHT22;2040;50.924;11.604;2023-09-12T10:06:27;25.90;99.90
4052;DHT22;2040;50.924;11.604;2023-09-12T10:08:55;26.10;99.90
4052;DHT22;2040;50.924;11.604;2023-09-12T10:11:23;26.30;99.90
4052;DHT22;2040;50.924;11.604;2023-09-12T10:13:56;26.30;99.90
4052;DHT22;2040;50.924;11.604;2023-09-12T10:16:24;26.10;99.90
4052;DHT22;2040;50.924;11.604;2023-09-12T10:21:46;25.90;99.90
4052;DHT22;2040;50.924;11.604;2023-09-12T10:24:14;26.00;99.90
4052;DHT22;2040;50.924;11.604;2023-09-12T10:26:43;26.10;99.90
4052;DHT22;2040;50.924;11.604;2023-09-12T10:29:13;26.10;99.90
4052;DHT22;2040;50.924;11.604;2023-09-12T10:31:42;26.10;99.90
4052;DHT22;2040;50.924;11.604;2023-09-12T10:34:08;26.10;99.90
4052;DHT22;2040;50.924;11.604;2023-09-12T10:36:40;26.10;99.90
4052;DHT22;2040;50.924;11.604;2023-09-12T10:39:07;26.10;99.90
4052;DHT22;2040;50.924;11.604;2023-09-12T10:41:39;26.30;99.90
4052;DHT22;2040;50.924;11.604;2023-09-12T10:44:15;26.50;99.90
4052;DHT22;2040;50.924;11.604;2023-09-12T10:46:42;26.70;99.90
4052;DHT22;2040;50.924;11.604;2023-09-12T10:49:09;27.00;99.90
4052;DHT22;2040;50.924;11.604;2023-09-12T10:51:44;27.20;99.90
4052;DHT22;2040;50.924;11.604;2023-09-12T10:54:13;27.20;99.90
4052;DHT22;2040;50.924;11.604;2023-09-12T10:56:39;27.20;99.90
4052;DHT22;2040;50.924;11.604;2023-09-12T11:01:36;27.30;99.90
4052;DHT22;2040;50.924;11.604;2023-09-12T11:06:53;27.70;99.90
4052;DHT22;2040;50.924;11.604;2023-09-12T11:09:23;28.10;99.90
4052;DHT22;2040;50.924;11.604;2023-09-12T11:11:56;28.30;99.90
4052;DHT22;2040;50.924;11.604;2023-09-12T11:14:22;28.50;99.90
4052;DHT22;2040;50.924;11.604;2023-09-12T11:19:50;28.20;99.90
4052;DHT22;2040;50.924;11.604;2023-09-12T11:22:28;28.30;99.90
4052;DHT22;2040;50.924;11.604;2023-09-12T11:24:55;28.20;99.90
4052;DHT22;2040;50.924;11.604;2023-09-12T11:27:25;28.40;99.90
4052;DHT22;2040;50.924;11.604;2023-09-12T11:30:03;28.70;99.90
4052;DHT22;2040;50.924;11.604;2023-09-12T11:32:35;28.80;99.90
4052;DHT22;2040;50.924;11.604;2023-09-12T11:35:06;28.80;99.90
4052;DHT22;2040;50.924;11.604;2023-09-12T11:37:32;28.70;99.90
4052;DHT22;2040;50.924;11.604;2023-09-12T11:39:58;28.60;99.90
4052;DHT22;2040;50.924;11.604;2023-09-12T11:42:25;28.70;99.90
4052;DHT22;2040;50.924;11.604;2023-09-12T11:44:51;29.00;99.90
4052;DHT22;2040;50.924;11.604;2023-09-12T11:47:17;29.20;99.90
4052;DHT22;2040;50.924;11.604;2023-09-12T11:49:43;29.30;99.90
4052;DHT22;2040;50.924;11.604;2023-09-12T11:52:15;29.40;99.90
4052;DHT22;2040;50.924;11.604;2023-09-12T11:54:45;29.20;99.90
4052;DHT22;2040;50.924;11.604;2023-09-12T11:57:13;29.20;99.90
4052;DHT22;2040;50.924;11.604;2023-09-12T11:59:41;29.40;99.90
4052;DHT22;2040;50.924;11.604;2023-09-12T12:02:09;29.60;99.90
4052;DHT22;2040;50.924;11.604;2023-09-12T12:04:35;29.80;99.90
4052;DHT22;2040;50.924;11.604;2023-09-12T12:07:02;29.90;99.90
4052;DHT22;2040;50.924;11.604;2023-09-12T12:09:30;29.70;99.90
4052;DHT22;2040;50.924;11.604;2023-09-12T12:11:55;29.70;99.90
4052;DHT22;2040;50.924;11.604;2023-09-12T12:14:26;29.70;99.90
4052;DHT22;2040;50.924;11.604;2023-09-12T12:16:52;29.70;99.90
4052;DHT22;2040;50.924;11.604;2023-09-12T12:19:18;29.50;99.90
4052;DHT22;2040;50.924;11.604;2023-09-12T12:21:44;29.80;99.90
4052;DHT22;2040;50.924;11.604;2023-09-12T12:24:11;29.80;99.90
4052;DHT22;2040;50.924;11.604;2023-09-12T12:26:41;30.00;99.90
4052;DHT22;2040;50.924;11.604;2023-09-12T12:29:07;30.20;99.90
4052;DHT22;2040;50.924;11.604;2023-09-12T12:31:34;30.10;99.90
4052;DHT22;2040;50.924;11.604;2023-09-12T12:33:59;30.10;99.90
4052;DHT22;2040;50.924;11.604;2023-09-12T12:36:25;30.20;99.90
4052;DHT22;2040;50.924;11.604;2023-09-12T12:38:51;30.30;99.90
4052;DHT22;2040;50.924;11.604;2023-09-12T12:41:23;30.30;99.90
4052;DHT22;2040;50.924;11.604;2023-09-12T12:43:50;30.40;99.90
4052;DHT22;2040;50.924;11.604;2023-09-12T12:46:17;30.50;99.90
4052;DHT22;2040;50.924;11.604;2023-09-12T12:48:45;30.40;99.90
4052;DHT22;2040;50.924;11.604;2023-09-12T12:51:25;30.10;99.90
4052;DHT22;2040;50.924;11.604;2023-09-12T12:53:53;30.40;99.90
4052;DHT22;2040;50.924;11.604;2023-09-12T12:56:21;30.60;99.90
4052;DHT22;2040;50.924;11.604;2023-09-12T12:58:52;30.60;99.90
4052;DHT22;2040;50.924;11.604;2023-09-12T13:01:19;30.50;99.90
4052;DHT22;2040;50.924;11.604;2023-09-12T13:03:46;30.60;99.90
4052;DHT22;2040;50.924;11.604;2023-09-12T13:06:12;30.70;99.90
4052;DHT22;2040;50.924;11.604;2023-09-12T13:08:41;30.80;99.90
4052;DHT22;2040;50.924;11.604;2023-09-12T13:11:11;30.60;99.90
4052;DHT22;2040;50.924;11.604;2023-09-12T13:13:37;30.70;99.90
4052;DHT22;2040;50.924;11.604;2023-09-12T13:16:04;30.50;99.90
4052;DHT22;2040;50.924;11.604;2023-09-12T13:18:33;30.90;99.90
4052;DHT22;2040;50.924;11.604;2023-09-12T13:20:59;30.70;99.90
4052;DHT22;2040;50.924;11.604;2023-09-12T13:23:25;30.70;99.90
4052;DHT22;2040;50.924;11.604;2023-09-12T13:25:51;30.70;99.90
4052;DHT22;2040;50.924;11.604;2023-09-12T13:28:17;30.70;99.90
4052;DHT22;2040;50.924;11.604;2023-09-12T13:30:43;30.60;99.90
4052;DHT22;2040;50.924;11.604;2023-09-12T13:33:10;30.60;99.90
4052;DHT22;2040;50.924;11.604;2023-09-12T13:35:36;30.70;99.90
4052;DHT22;2040;50.924;11.604;2023-09-12T13:38:02;30.70;99.90
4052;DHT22;2040;50.924;11.604;2023-09-12T13:40:37;30.60;99.90
4052;DHT22;2040;50.924;11.604;2023-09-12T13:43:04;30.30;99.90
4052;DHT22;2040;50.924;11.604;2023-09-12T13:45:30;30.40;99.90
4052;DHT22;2040;50.924;11.604;2023-09-12T13:47:55;30.40;99.90
4052;DHT22;2040;50.924;11.604;2023-09-12T13:50:21;30.00;99.90
4052;DHT22;2040;50.924;11.604;2023-09-12T13:52:48;29.70;99.90
4052;DHT22;2040;50.924;11.604;2023-09-12T13:55:14;29.90;99.90
4052;DHT22;2040;50.924;11.604;2023-09-12T13:57:41;30.20;99.90
4052;DHT22;2040;50.924;11.604;2023-09-12T14:00:08;30.40;99.90
4052;DHT22;2040;50.924;11.604;2023-09-12T14:02:33;30.50;99.90
4052;DHT22;2040;50.924;11.604;2023-09-12T14:04:59;30.50;99.90
4052;DHT22;2040;50.924;11.604;2023-09-12T14:07:26;30.50;99.90
4052;DHT22;2040;50.924;11.604;2023-09-12T14:09:51;30.40;99.90
4052;DHT22;2040;50.924;11.604;2023-09-12T14:12:20;30.50;99.90
4052;DHT22;2040;50.924;11.604;2023-09-12T14:14:45;30.50;99.90
4052;DHT22;2040;50.924;11.604;2023-09-12T14:17:11;30.30;99.90
4052;DHT22;2040;50.924;11.604;2023-09-12T14:19:37;30.20;99.90
4052;DHT22;2040;50.924;11.604;2023-09-12T14:22:03;30.40;99.90
4052;DHT22;2040;50.924;11.604;2023-09-12T14:24:28;30.20;99.90
4052;DHT22;2040;50.924;11.604;2023-09-12T14:26:54;30.20;99.90
4052;DHT22;2040;50.924;11.604;2023-09-12T14:29:19;30.00;99.90
4052;DHT22;2040;50.924;11.604;2023-09-12T14:31:45;30.00;99.90
4052;DHT22;2040;50.924;11.604;2023-09-12T14:34:16;29.90;99.90
4052;DHT22;2040;50.924;11.604;2023-09-12T14:36:41;29.90;99.90
4052;DHT22;2040;50.924;11.604;2023-09-12T14:39:07;30.20;99.90
4052;DHT22;2040;50.924;11.604;2023-09-12T14:41:33;30.10;99.90
4052;DHT22;2040;50.924;11.604;2023-09-12T14:43:58;30.30;99.90
4052;DHT22;2040;50.924;11.604;2023-09-12T14:46:24;30.20;99.90
4052;DHT22;2040;50.924;11.604;2023-09-12T14:48:50;30.30;99.90
4052;DHT22;2040;50.924;11.604;2023-09-12T14:51:15;30.20;99.90
4052;DHT22;2040;50.924;11.604;2023-09-12T14:53:41;30.10;99.90
4052;DHT22;2040;50.924;11.604;2023-09-12T14:56:13;29.90;99.90
4052;DHT22;2040;50.924;11.604;2023-09-12T14:58:38;30.00;99.90
4052;DHT22;2040;50.924;11.604;2023-09-12T15:01:04;29.70;99.90
4052;DHT22;2040;50.924;11.604;2023-09-12T15:03:30;29.60;99.90
4052;DHT22;2040;50.924;11.604;2023-09-12T15:05:58;29.40;99.90
4052;DHT22;2040;50.924;11.604;2023-09-12T15:08:24;29.30;99.90
4052;DHT22;2040;50.924;11.604;2023-09-12T15:10:49;29.40;99.90
4052;DHT22;2040;50.924;11.604;2023-09-12T15:13:15;29.10;99.90
4052;DHT22;2040;50.924;11.604;2023-09-12T15:15:41;29.20;99.90
4052;DHT22;2040;50.924;11.604;2023-09-12T15:18:06;29.00;99.90
4052;DHT22;2040;50.924;11.604;2023-09-12T15:20:32;28.60;99.90
4052;DHT22;2040;50.924;11.604;2023-09-12T15:22:57;28.40;99.90
4052;DHT22;2040;50.924;11.604;2023-09-12T15:25:23;28.10;99.90
4052;DHT22;2040;50.924;11.604;2023-09-12T15:27:49;27.90;99.90
4052;DHT22;2040;50.924;11.604;2023-09-12T15:30:14;27.80;99.90
4052;DHT22;2040;50.924;11.604;2023-09-12T15:32:40;27.80;99.90
4052;DHT22;2040;50.924;11.604;2023-09-12T15:35:06;27.90;99.90
4052;DHT22;2040;50.924;11.604;2023-09-12T15:37:32;27.80;99.90
4052;DHT22;2040;50.924;11.604;2023-09-12T15:39:58;27.60;99.90
4052;DHT22;2040;50.924;11.604;2023-09-12T15:42:23;27.70;99.90
4052;DHT22;2040;50.924;11.604;2023-09-12T15:44:49;27.60;99.90
4052;DHT22;2040;50.924;11.604;2023-09-12T15:47:15;27.60;99.90
4052;DHT22;2040;50.924;11.604;2023-09-12T15:49:40;27.50;99.90
4052;DHT22;2040;50.924;11.604;2023-09-12T15:52:06;27.50;99.90
4052;DHT22;2040;50.924;11.604;2023-09-12T15:54:32;27.40;99.90
4052;DHT22;2040;50.924;11.604;2023-09-12T15:56:58;27.40;99.90
4052;DHT22;2040;50.924;11.604;2023-09-12T15:59:23;27.40;99.90